Lysite, Wyoming
Current Conditions -  °F | °C
As of 3:55 AM on Friday 31 Oct 2014 (Local Time) from KTBX Reporting Station
Clear Clear  
Wind Chill: 26°   Ceiling: Unl
Heat Index: 37°   Visibility: 10mi
Dew Point: 23°   Wind: 24mph
Humidity: 56%   Direction: 120°ESE
Pressure: 30.27"   Gusts: 28mph
Location:  43.27°N, 107.69°W
Report Text: KTBX 310955Z AUTO 12021G24KT 10SM CLR 03/M05 A3027 RMK AO2
Loading
Personal Weather Stations






























Interactive Weather Map
Tropical Storm Tracking
New forecast layout! Learn more

10-Day Weather Forecast

Advertisements
Track Severe Weather on mobile